Time;durP1;ratioP1;P1;durP2;ratioP2;P2;SDS_P1;SDS_P2;PMS_P1;PMS_P2;Temp;Humidity;BMP_temperature;BMP_pressure;BME280_temperature;BME280_humidity;BME280_pressure;Samples;Min_cycle;Max_cycle;Signal;HPM_P1;HPM_P2
2022/06/17 00:01:45;;;;;;;1.10;1.00;;;;;;;14.01;93.16;101415.34;5089193;28;20211;-73
2022/06/17 00:04:12;;;;;;;2.53;1.20;;;;;;;13.96;92.87;101407.59;5090855;28;20218;-73
2022/06/17 00:06:43;;;;;;;1.13;1.10;;;;;;;14.02;95.28;101399.59;5090283;28;20220;-73
2022/06/17 00:09:14;;;;;;;1.20;1.10;;;;;;;14.02;94.93;101386.47;5088235;28;20190;-73
2022/06/17 00:11:40;;;;;;;1.40;1.20;;;;;;;13.85;91.32;101387.84;5090930;28;20202;-74
2022/06/17 00:14:12;;;;;;;1.87;1.37;;;;;;;13.71;88.57;101378.59;5098704;28;20220;-74
2022/06/17 00:16:39;;;;;;;1.37;1.10;;;;;;;13.73;91.52;101379.41;5094264;28;20561;-73
2022/06/17 00:19:07;;;;;;;1.47;1.07;;;;;;;13.81;95.03;101371.34;5098818;28;20208;-73
2022/06/17 00:21:35;;;;;;;2.13;1.40;;;;;;;13.82;95.52;101367.81;5086833;28;20216;-73
2022/06/17 00:24:07;;;;;;;1.77;1.13;;;;;;;13.88;96.88;101367.66;5084015;28;20223;-74
2022/06/17 00:26:33;;;;;;;1.10;1.00;;;;;;;13.78;95.02;101361.81;5090228;28;20213;-74
2022/06/17 00:29:00;;;;;;;1.10;1.00;;;;;;;13.72;94.98;101369.84;5090852;28;20200;-73
2022/06/17 00:31:26;;;;;;;1.20;1.10;;;;;;;13.74;95.24;101383.75;5063885;28;20219;-73
2022/06/17 00:33:53;;;;;;;1.57;1.10;;;;;;;13.67;94.39;101376.97;5087405;28;20196;-73
2022/06/17 00:36:21;;;;;;;1.40;1.10;;;;;;;13.66;94.65;101382.25;5067241;28;20205;-73
2022/06/17 00:38:48;;;;;;;1.23;1.07;;;;;;;13.53;94.12;101387.81;5086665;28;20660;-74
2022/06/17 00:41:16;;;;;;;2.33;1.30;;;;;;;13.56;96.87;101385.13;5071562;28;20216;-73
2022/06/17 00:43:44;;;;;;;2.40;1.00;;;;;;;13.50;96.17;101382.66;5085484;28;20248;-73
2022/06/17 00:46:24;;;;;;;2.10;1.17;;;;;;;13.49;97.76;101387.94;5086773;28;20217;-73
2022/06/17 00:49:00;;;;;;;1.10;1.00;;;;;;;13.50;98.99;101387.03;5069748;28;20195;-73
2022/06/17 00:51:31;;;;;;;2.30;1.30;;;;;;;13.40;97.92;101386.41;5070153;28;20206;-73
2022/06/17 00:54:02;;;;;;;1.63;1.10;;;;;;;13.31;97.38;101390.13;5072825;28;20253;-73
2022/06/17 00:56:31;;;;;;;1.17;1.07;;;;;;;13.34;99.49;101382.19;5069803;28;20205;-72
2022/06/17 00:59:02;;;;;;;2.10;1.30;;;;;;;13.14;96.25;101387.03;5070382;28;20202;-74
2022/06/17 01:01:32;;;;;;;2.17;1.40;;;;;;;13.03;97.57;101389.91;5069638;28;20216;-74
2022/06/17 01:04:02;;;;;;;1.43;1.30;;;;;;;12.90;97.08;101389.34;5088143;28;20198;-73
2022/06/17 01:06:35;;;;;;;2.30;1.40;;;;;;;12.99;100.00;101394.34;5083737;28;20232;-73
2022/06/17 01:11:51;;;;;;;1.30;1.20;;;;;;;12.95;100.00;101400.56;5071291;28;20288;-73
2022/06/17 01:14:21;;;;;;;1.40;1.30;;;;;;;12.82;99.81;101407.88;5069657;28;20239;-73
2022/06/17 01:16:49;;;;;;;1.40;1.30;;;;;;;12.80;100.00;101414.00;5069551;28;20199;-73
2022/06/17 01:19:31;;;;;;;1.23;1.13;;;;;;;12.79;100.00;101414.94;5086116;28;20206;-73
2022/06/17 01:22:17;;;;;;;1.27;1.17;;;;;;;12.67;100.00;101416.06;5069979;28;20221;-73
2022/06/17 01:24:48;;;;;;;1.30;1.20;;;;;;;12.73;100.00;101423.75;5074980;28;20217;-73
2022/06/17 01:27:20;;;;;;;1.20;1.10;;;;;;;12.72;100.00;101427.28;5068728;28;20198;-73
2022/06/17 01:29:48;;;;;;;3.03;1.77;;;;;;;12.62;100.00;101425.75;5088593;28;20242;-73
2022/06/17 01:32:16;;;;;;;1.63;1.40;;;;;;;12.44;100.00;101424.41;5071981;28;20567;-73
2022/06/17 01:34:43;;;;;;;1.40;1.30;;;;;;;12.53;100.00;101418.13;5071038;28;20216;-73
2022/06/17 01:37:10;;;;;;;1.43;1.20;;;;;;;12.47;100.00;101433.03;5083011;28;20206;-73
2022/06/17 01:39:40;;;;;;;3.03;1.40;;;;;;;12.48;100.00;101426.03;5065895;28;20198;-73
2022/06/17 01:42:10;;;;;;;1.47;1.03;;;;;;;12.27;100.00;101422.97;5088920;28;20210;-73
2022/06/17 01:44:39;;;;;;;2.90;1.67;;;;;;;12.34;100.00;101423.72;5088772;28;20647;-73
2022/06/17 01:47:11;;;;;;;3.37;1.37;;;;;;;12.34;100.00;101428.09;5058246;28;20563;-73
2022/06/17 01:49:43;;;;;;;1.10;1.00;;;;;;;12.27;100.00;101429.97;5071012;28;20213;-73
2022/06/17 01:52:14;;;;;;;1.90;1.53;;;;;;;12.16;100.00;101437.19;5065252;28;20208;-73
2022/06/17 01:54:46;;;;;;;1.50;1.40;;;;;;;12.12;100.00;101439.84;5082778;28;20218;-73
2022/06/17 01:57:19;;;;;;;2.67;1.20;;;;;;;12.12;100.00;101431.16;5065852;28;20209;-73
2022/06/17 01:59:51;;;;;;;3.10;1.37;;;;;;;12.07;100.00;101430.38;5086968;28;20641;-73
2022/06/17 02:02:22;;;;;;;2.33;1.30;;;;;;;11.96;100.00;101432.31;5073310;28;20213;-73
2022/06/17 02:04:54;;;;;;;3.03;1.63;;;;;;;12.00;100.00;101434.00;5089911;28;20222;-73
2022/06/17 02:07:25;;;;;;;2.23;1.67;;;;;;;12.04;100.00;101431.28;5067512;28;20250;-73
2022/06/17 02:09:54;;;;;;;4.50;1.70;;;;;;;11.92;100.00;101428.91;5065834;28;20255;-73
2022/06/17 02:12:24;;;;;;;1.93;1.60;;;;;;;11.72;100.00;101437.94;5067659;28;20212;-73
2022/06/17 02:14:57;;;;;;;1.90;1.40;;;;;;;11.67;100.00;101434.53;5065330;28;20221;-72
2022/06/17 02:17:45;;;;;;;2.03;1.53;;;;;;;11.68;100.00;101443.22;5085510;28;20224;-73
2022/06/17 02:20:32;;;;;;;1.53;1.43;;;;;;;11.64;100.00;101449.41;5084782;28;20217;-73
2022/06/17 02:23:01;;;;;;;2.53;1.40;;;;;;;11.69;100.00;101458.03;5068267;28;20292;-73
2022/06/17 02:25:30;;;;;;;1.40;1.30;;;;;;;11.69;100.00;101471.94;5079491;28;20221;-73
2022/06/17 02:28:00;;;;;;;4.87;1.70;;;;;;;11.71;100.00;101469.31;5085548;28;20197;-74
2022/06/17 02:30:29;;;;;;;2.53;1.40;;;;;;;11.70;100.00;101473.69;5070058;28;20191;-73
2022/06/17 02:32:59;;;;;;;2.80;1.53;;;;;;;11.68;100.00;101461.53;5067202;28;20205;-73
2022/06/17 02:35:34;;;;;;;3.20;1.80;;;;;;;11.79;100.00;101463.97;5082406;28;20217;-73
2022/06/17 02:38:00;;;;;;;2.80;1.30;;;;;;;11.69;100.00;101461.50;5069653;28;20228;-73
2022/06/17 02:40:32;;;;;;;4.10;1.70;;;;;;;11.65;100.00;101451.16;5055037;28;20255;-74
2022/06/17 02:43:02;;;;;;;2.37;1.40;;;;;;;11.66;100.00;101460.69;5065906;28;20218;-73
2022/06/17 02:45:33;;;;;;;1.77;1.50;;;;;;;11.55;100.00;101460.88;5065066;28;20217;-73
2022/06/17 02:48:04;;;;;;;2.40;1.37;;;;;;;11.59;100.00;101449.50;5070731;28;20234;-73
2022/06/17 02:54:24;;;;;;;3.07;1.50;;;;;;;11.71;100.00;101448.41;5083410;28;20214;-73
2022/06/17 02:56:54;;;;;;;2.10;1.20;;;;;;;11.55;100.00;101450.44;5070580;28;20307;-72
2022/06/17 02:59:29;;;;;;;2.63;1.43;;;;;;;11.49;100.00;101447.94;5085596;28;20205;-73
2022/06/17 03:01:59;;;;;;;1.80;1.67;;;;;;;11.63;100.00;101445.94;5072269;28;20209;-73
2022/06/17 03:04:36;;;;;;;1.50;1.40;;;;;;;11.56;100.00;101460.00;5076150;28;20232;-73
2022/06/17 03:07:13;;;;;;;8.70;1.80;;;;;;;11.38;100.00;101463.78;5062874;28;20289;-73
2022/06/17 03:09:41;;;;;;;5.47;1.80;;;;;;;11.47;100.00;101463.63;5067302;28;20212;-74
2022/06/17 03:12:11;;;;;;;1.87;1.57;;;;;;;11.40;100.00;101466.34;5069142;28;20557;-73
2022/06/17 03:14:43;;;;;;;1.33;1.23;;;;;;;11.39;100.00;101464.63;5071325;28;20221;-74
2022/06/17 03:17:16;;;;;;;1.73;1.40;;;;;;;11.58;100.00;101466.06;5070898;28;20250;-73
2022/06/17 03:19:42;;;;;;;2.13;1.80;;;;;;;11.67;100.00;101468.50;5070905;28;20201;-72
2022/06/17 03:22:13;;;;;;;3.37;1.70;;;;;;;11.60;100.00;101466.03;5069499;28;20245;-72
2022/06/17 03:24:45;;;;;;;2.17;1.70;;;;;;;11.40;100.00;101472.47;5085325;28;20560;-73
2022/06/17 03:27:16;;;;;;;1.50;1.40;;;;;;;11.30;100.00;101471.72;5087043;28;20231;-73
2022/06/17 03:29:47;;;;;;;3.30;1.80;;;;;;;11.58;100.00;101484.34;5074896;28;20213;-73
2022/06/17 03:32:20;;;;;;;3.17;1.93;;;;;;;11.60;100.00;101482.56;5061499;28;20239;-73
2022/06/17 03:34:50;;;;;;;4.17;1.70;;;;;;;11.69;100.00;101485.00;5069580;28;20225;-73
2022/06/17 03:37:22;;;;;;;1.93;1.40;;;;;;;11.76;100.00;101467.47;5056065;28;20213;-73
2022/06/17 03:39:53;;;;;;;3.60;1.50;;;;;;;11.91;100.00;101464.63;5083082;28;20205;-73
2022/06/17 03:42:25;;;;;;;2.00;1.80;;;;;;;12.07;100.00;101464.34;5069001;28;20558;-73
2022/06/17 03:45:01;;;;;;;1.80;1.60;;;;;;;11.89;100.00;101466.38;5068401;28;20302;-73
2022/06/17 03:47:43;;;;;;;1.60;1.50;;;;;;;12.10;100.00;101464.28;5059865;28;20205;-73
2022/06/17 03:50:19;;;;;;;2.10;1.90;;;;;;;12.07;100.00;101469.59;5068154;28;20455;-74
2022/06/17 03:52:52;;;;;;;2.07;1.80;;;;;;;12.13;100.00;101464.22;5087296;28;20194;-73
2022/06/17 03:55:21;;;;;;;7.97;2.60;;;;;;;12.30;100.00;101474.38;5064176;28;20624;-73
2022/06/17 03:57:51;;;;;;;3.23;2.23;;;;;;;12.43;100.00;101461.91;5070435;28;20282;-73
2022/06/17 04:00:28;;;;;;;8.70;3.07;;;;;;;12.71;100.00;101461.31;5087790;28;20202;-73
2022/06/17 04:02:55;;;;;;;3.93;2.87;;;;;;;12.67;100.00;101466.63;5091255;28;20226;-73
2022/06/17 04:05:22;;;;;;;4.07;3.00;;;;;;;12.56;100.00;101470.34;5064670;28;20291;-72
2022/06/17 04:07:49;;;;;;;4.23;3.30;;;;;;;12.71;100.00;101475.25;5082013;28;20202;-72
2022/06/17 04:10:21;;;;;;;4.17;2.63;;;;;;;12.90;100.00;101469.63;5061529;28;20292;-72
2022/06/17 04:12:52;;;;;;;4.37;2.90;;;;;;;12.81;100.00;101483.78;5072923;28;20298;-72
2022/06/17 04:15:37;;;;;;;5.20;2.83;;;;;;;13.08;100.00;101470.06;5063289;28;20354;-72
2022/06/17 04:18:04;;;;;;;3.23;2.60;;;;;;;13.24;100.00;101474.94;5088989;28;20284;-73
2022/06/17 04:20:38;;;;;;;7.17;2.50;;;;;;;13.33;100.00;101484.38;5072707;28;20755;-72
2022/06/17 04:23:11;;;;;;;3.67;2.73;;;;;;;13.47;100.00;101491.91;5068791;28;20260;-70
2022/06/17 04:26:01;;;;;;;3.43;2.37;;;;;;;13.60;100.00;101496.81;5090642;28;20708;-71
2022/06/17 04:28:33;;;;;;;5.00;1.97;;;;;;;13.73;100.00;101493.88;5067738;28;20194;-71
2022/06/17 04:31:06;;;;;;;2.97;1.80;;;;;;;13.79;100.00;101498.94;5071901;28;20819;-73
2022/06/17 04:33:41;;;;;;;3.50;1.77;;;;;;;13.94;100.00;101500.31;5064439;28;20263;-72
2022/06/17 04:36:13;;;;;;;1.83;1.60;;;;;;;13.98;96.59;101520.31;5070870;28;20215;-72
2022/06/17 04:38:49;;;;;;;2.23;1.27;;;;;;;14.07;93.71;101520.09;5095182;28;20220;-72
2022/06/17 04:41:39;;;;;;;4.50;1.50;;;;;;;14.16;89.52;101535.56;5069676;28;20685;-71
2022/06/17 04:44:13;;;;;;;1.40;1.20;;;;;;;14.24;89.81;101529.25;5088701;28;20227;-71
2022/06/17 04:46:46;;;;;;;3.73;1.50;;;;;;;14.27;86.49;101542.28;5072354;28;20250;-73
2022/06/17 04:49:26;;;;;;;3.07;1.73;;;;;;;14.44;91.27;101536.56;5077178;28;20204;-73
2022/06/17 04:52:00;;;;;;;1.40;1.30;;;;;;;14.52;90.23;101539.84;5066073;28;20232;-73
2022/06/17 04:54:29;;;;;;;1.60;1.50;;;;;;;14.73;90.73;101541.88;5084387;28;20580;-72
2022/06/17 04:57:12;;;;;;;2.77;1.57;;;;;;;14.78;85.83;101541.75;5060754;28;20251;-72
2022/06/17 04:59:46;;;;;;;1.33;1.23;;;;;;;14.85;84.34;101548.56;5069855;28;20246;-73
2022/06/17 05:02:17;;;;;;;2.70;1.43;;;;;;;15.05;85.71;101544.47;5070499;28;20198;-73
2022/06/17 05:04:58;;;;;;;1.50;1.20;;;;;;;15.24;85.08;101542.16;5067917;28;20677;-73
2022/06/17 05:07:26;;;;;;;2.20;1.50;;;;;;;15.31;84.27;101541.91;5065063;28;20240;-73
2022/06/17 05:09:59;;;;;;;3.47;1.40;;;;;;;15.40;82.87;101542.53;5063735;28;20591;-71
2022/06/17 05:12:30;;;;;;;1.37;1.27;;;;;;;15.47;82.38;101544.03;5065142;28;20203;-73
2022/06/17 05:15:00;;;;;;;1.93;1.50;;;;;;;15.52;81.32;101550.00;5074490;28;20221;-72
2022/06/17 05:17:28;;;;;;;2.70;1.47;;;;;;;15.58;81.09;101557.69;5060611;28;20214;-73
2022/06/17 05:19:54;;;;;;;1.40;1.30;;;;;;;15.67;79.14;101554.78;5061032;28;20198;-73
2022/06/17 05:22:30;;;;;;;1.50;1.40;;;;;;;15.76;78.73;101552.78;5067668;28;20739;-73
2022/06/17 05:24:58;;;;;;;2.37;1.43;;;;;;;15.88;79.27;101549.72;5067955;28;20274;-72
2022/06/17 05:27:25;;;;;;;2.40;1.60;;;;;;;15.95;78.43;101555.66;5068005;28;20195;-73
2022/06/17 05:29:51;;;;;;;1.47;1.37;;;;;;;16.00;76.73;101559.00;5067349;28;20230;-72
2022/06/17 05:32:20;;;;;;;1.60;1.30;;;;;;;16.09;78.27;101561.28;5068021;28;20679;-72
2022/06/17 05:34:48;;;;;;;1.30;1.20;;;;;;;16.15;76.79;101561.09;5060062;28;20230;-73
2022/06/17 05:37:15;;;;;;;2.90;1.30;;;;;;;16.24;73.62;101563.41;5082824;28;20208;-73
2022/06/17 05:39:44;;;;;;;2.63;1.40;;;;;;;16.37;73.71;101568.22;5066709;28;20706;-73
2022/06/17 05:42:11;;;;;;;1.30;1.20;;;;;;;16.44;73.68;101570.59;5064930;28;20201;-72
2022/06/17 05:44:38;;;;;;;4.03;1.70;;;;;;;16.48;73.13;101568.72;5068679;28;20575;-73
2022/06/17 05:47:12;;;;;;;1.90;1.30;;;;;;;16.70;74.45;101571.44;5066039;28;20195;-73
2022/06/17 05:49:57;;;;;;;3.43;1.43;;;;;;;16.78;72.60;101571.13;5064495;28;20197;-73
2022/06/17 05:52:55;;;;;;;2.63;1.37;;;;;;;16.81;71.92;101571.03;5025933;28;20652;-73
2022/06/17 05:55:40;;;;;;;1.60;1.20;;;;;;;16.94;73.07;101566.19;5060581;28;20221;-73
2022/06/17 05:58:07;;;;;;;1.63;1.40;;;;;;;17.05;72.30;101563.16;5054329;28;20202;-72
2022/06/17 06:00:36;;;;;;;1.83;1.20;;;;;;;17.15;72.88;101562.75;5070236;28;20197;-73
2022/06/17 06:03:05;;;;;;;1.70;1.30;;;;;;;17.22;70.14;101572.13;5076315;28;20220;-73
2022/06/17 06:05:40;;;;;;;1.40;1.30;;;;;;;17.28;70.17;101575.44;5082610;28;20719;-71
2022/06/17 06:08:12;;;;;;;1.50;1.20;;;;;;;17.34;70.42;101581.34;5065422;28;20206;-71
2022/06/17 06:10:41;;;;;;;1.40;1.20;;;;;;;17.40;69.08;101582.88;5066222;28;20205;-72
2022/06/17 06:13:08;;;;;;;3.57;1.40;;;;;;;17.57;69.57;101585.69;5061938;28;20197;-71
2022/06/17 06:15:41;;;;;;;3.00;1.47;;;;;;;17.68;68.53;101590.53;5067088;28;20583;-72
2022/06/17 06:18:28;;;;;;;2.07;1.60;;;;;;;17.83;69.02;101591.66;5073353;28;20689;-72
2022/06/17 06:20:56;;;;;;;2.97;1.60;;;;;;;17.80;66.82;101594.44;5065315;28;20702;-72
2022/06/17 06:23:26;;;;;;;2.00;1.33;;;;;;;17.94;67.46;101594.75;5072338;28;20217;-71
2022/06/17 06:25:53;;;;;;;3.27;1.63;;;;;;;18.05;66.92;101601.38;5058904;28;20705;-71
2022/06/17 06:28:22;;;;;;;1.33;1.23;;;;;;;18.11;66.36;101604.59;5081063;28;20511;-71
2022/06/17 06:30:54;;;;;;;2.13;1.57;;;;;;;18.16;67.06;101605.25;5078478;28;20207;-71
2022/06/17 06:33:21;;;;;;;2.50;1.63;;;;;;;18.27;64.78;101614.50;5055492;28;20202;-71
2022/06/17 06:35:49;;;;;;;1.50;1.20;;;;;;;18.32;65.04;101608.09;5082103;28;20717;-71
2022/06/17 06:38:16;;;;;;;2.33;1.57;;;;;;;18.35;64.91;101604.50;5067376;28;20226;-72
2022/06/17 06:40:43;;;;;;;1.60;1.40;;;;;;;18.53;65.24;101614.22;5066932;28;20239;-72
2022/06/17 06:43:14;;;;;;;3.03;1.30;;;;;;;18.66;64.16;101616.34;5064531;28;20252;-72
2022/06/17 06:45:59;;;;;;;2.80;1.50;;;;;;;18.69;64.56;101611.78;5078834;28;20242;-71
2022/06/17 06:48:27;;;;;;;2.57;1.40;;;;;;;18.78;64.77;101607.00;5062725;28;20697;-72
2022/06/17 06:50:54;;;;;;;4.30;1.43;;;;;;;18.91;64.19;101616.13;5081662;28;20384;-71
2022/06/17 06:53:24;;;;;;;2.73;1.50;;;;;;;19.02;62.63;101611.22;5065093;28;20280;-72
2022/06/17 06:55:50;;;;;;;1.90;1.70;;;;;;;19.08;61.52;101608.31;5084334;28;20224;-72
2022/06/17 06:58:19;;;;;;;2.07;1.40;;;;;;;19.08;60.47;101610.94;5059783;28;20202;-71
2022/06/17 07:00:52;;;;;;;5.77;1.80;;;;;;;19.25;62.36;101607.50;5064158;28;20276;-72
2022/06/17 07:03:19;;;;;;;1.80;1.50;;;;;;;19.32;60.77;101612.50;5076727;28;20910;-72
2022/06/17 07:05:49;;;;;;;1.70;1.50;;;;;;;19.32;59.31;101613.34;5072536;28;20268;-72
2022/06/17 07:08:24;;;;;;;2.57;1.50;;;;;;;19.44;59.55;101617.22;5083953;28;20212;-72
2022/06/17 07:10:54;;;;;;;4.83;1.70;;;;;;;19.53;60.56;101605.34;5077469;28;20215;-72
2022/06/17 07:13:22;;;;;;;5.33;1.47;;;;;;;19.60;59.58;101607.59;5081802;28;20194;-71
2022/06/17 07:15:50;;;;;;;1.43;1.33;;;;;;;19.68;58.00;101609.84;5082121;28;20629;-72
2022/06/17 07:18:18;;;;;;;2.27;1.43;;;;;;;19.74;57.85;101617.53;5079417;28;20201;-72
2022/06/17 07:20:47;;;;;;;1.80;1.40;;;;;;;19.89;58.79;101617.72;5082728;28;20197;-72
2022/06/17 07:23:17;;;;;;;3.53;1.63;;;;;;;19.88;56.48;101614.22;5076409;28;20232;-72
2022/06/17 07:25:44;;;;;;;2.47;1.73;;;;;;;19.97;57.62;101612.91;5081912;28;20217;-72
2022/06/17 07:28:15;;;;;;;2.50;1.37;;;;;;;20.06;59.22;101612.44;5082550;28;20194;-72
2022/06/17 07:30:44;;;;;;;2.17;1.57;;;;;;;20.16;56.33;101621.63;5080081;28;20678;-71
2022/06/17 07:33:10;;;;;;;1.77;1.50;;;;;;;20.29;57.34;101626.31;5082879;28;20205;-71
2022/06/17 07:35:39;;;;;;;2.97;1.57;;;;;;;20.27;56.51;101630.81;5079779;28;20210;-71
2022/06/17 07:40:49;;;;;;;3.47;1.60;;;;;;;20.24;55.24;101638.00;5087535;28;20664;-71
2022/06/17 07:43:18;;;;;;;3.27;1.50;;;;;;;20.26;56.58;101637.88;5082568;28;20221;-72
2022/06/17 07:45:45;;;;;;;1.40;1.30;;;;;;;20.42;55.85;101630.91;5081086;28;20359;-71
2022/06/17 07:48:14;;;;;;;1.53;1.10;;;;;;;20.64;55.95;101640.41;5082495;28;20213;-71
2022/06/17 07:50:43;;;;;;;1.47;1.37;;;;;;;20.67;56.28;101645.53;5085236;28;20697;-72
2022/06/17 07:53:10;;;;;;;1.40;1.17;;;;;;;20.77;56.61;101648.53;5067738;28;20198;-71
2022/06/17 07:55:38;;;;;;;1.97;1.20;;;;;;;20.81;56.40;101650.13;5065729;28;20222;-71
2022/06/17 07:58:04;;;;;;;1.40;1.30;;;;;;;20.85;54.86;101650.81;5083265;28;20548;-71
2022/06/17 08:00:36;;;;;;;1.33;1.23;;;;;;;21.00;56.25;101647.31;5078148;28;20690;-71
2022/06/17 08:03:04;;;;;;;2.93;1.37;;;;;;;21.10;54.66;101645.03;5085060;28;20204;-71
2022/06/17 08:05:31;;;;;;;1.43;1.30;;;;;;;21.04;54.55;101658.63;5081065;28;20576;-71
2022/06/17 08:07:59;;;;;;;1.97;1.20;;;;;;;21.07;53.21;101651.38;5087664;28;20193;-71
2022/06/17 08:10:38;;;;;;;1.27;1.17;;;;;;;21.31;54.70;101651.81;5084670;28;20706;-71
2022/06/17 08:13:06;;;;;;;1.70;1.33;;;;;;;21.52;55.07;101648.94;5086739;28;20580;-72
2022/06/17 08:15:34;;;;;;;1.33;0.97;;;;;;;21.72;53.23;101654.00;5082604;28;20233;-71
2022/06/17 08:18:00;;;;;;;1.33;1.23;;;;;;;21.52;52.13;101647.13;5081927;28;20202;-71
2022/06/17 08:20:29;;;;;;;2.50;1.40;;;;;;;21.57;52.45;101651.34;5086988;28;20662;-71
2022/06/17 08:22:56;;;;;;;1.73;1.30;;;;;;;21.65;53.07;101647.31;5084526;28;20654;-71
2022/06/17 08:25:22;;;;;;;2.30;1.30;;;;;;;21.47;52.78;101646.53;5084135;28;20222;-71
2022/06/17 08:27:51;;;;;;;3.90;1.00;;;;;;;21.43;52.73;101658.25;5084376;28;20276;-71
2022/06/17 08:30:22;;;;;;;1.60;0.93;;;;;;;21.45;52.36;101655.50;5084185;28;20686;-72
2022/06/17 08:32:53;;;;;;;2.00;1.20;;;;;;;21.46;52.00;101655.44;5079740;28;20206;-72
2022/06/17 08:35:22;;;;;;;2.23;1.40;;;;;;;21.14;51.80;101658.06;5084218;28;20213;-71
2022/06/17 08:37:52;;;;;;;1.47;1.30;;;;;;;20.88;52.17;101656.81;5082095;28;20198;-71
2022/06/17 08:40:34;;;;;;;1.53;1.37;;;;;;;21.11;52.58;101666.16;5080412;28;20202;-72
2022/06/17 08:43:13;;;;;;;2.40;1.30;;;;;;;21.08;51.77;101671.63;5087032;28;20201;-71
2022/06/17 08:45:51;;;;;;;2.13;1.43;;;;;;;21.21;53.27;101663.84;5079506;28;20224;-71
2022/06/17 08:48:32;;;;;;;2.00;1.53;;;;;;;21.28;51.89;101665.25;5082187;28;20211;-71
2022/06/17 08:51:09;;;;;;;1.50;1.40;;;;;;;21.61;52.56;101655.53;5090623;28;20235;-71
2022/06/17 08:53:59;;;;;;;1.90;1.40;;;;;;;21.66;51.05;101664.94;5081903;28;20194;-71
2022/06/17 08:56:30;;;;;;;1.47;0.97;;;;;;;21.98;51.68;101670.19;5078440;23;20660;-73
2022/06/17 08:59:13;;;;;;;1.70;1.10;;;;;;;21.86;50.13;101673.56;5064798;28;20214;-73
2022/06/17 09:01:48;;;;;;;1.73;1.27;;;;;;;21.94;50.44;101671.34;5043984;28;20305;-73
2022/06/17 09:04:29;;;;;;;1.50;1.10;;;;;;;22.38;50.79;101662.59;5039494;28;20230;-73
2022/06/17 09:07:07;;;;;;;1.40;1.27;;;;;;;22.55;48.58;101664.25;5043241;28;20203;-73
2022/06/17 09:09:50;;;;;;;6.90;1.37;;;;;;;22.42;47.29;101661.44;5071011;23;20663;-75
2022/06/17 09:12:25;;;;;;;2.43;1.40;;;;;;;22.52;47.25;101667.09;5081010;28;20656;-75
2022/06/17 09:15:08;;;;;;;1.23;0.90;;;;;;;22.69;46.59;101674.03;5079258;28;20208;-75
2022/06/17 09:17:45;;;;;;;1.90;1.00;;;;;;;22.89;47.40;101672.81;5078569;28;20674;-75
2022/06/17 09:20:17;;;;;;;1.17;1.03;;;;;;;22.84;44.63;101678.41;5080445;28;20528;-75
2022/06/17 09:22:48;;;;;;;4.30;1.20;;;;;;;22.81;45.64;101669.75;5080204;28;20201;-75
2022/06/17 09:25:19;;;;;;;3.03;1.10;;;;;;;22.76;46.55;101667.41;5081275;28;20220;-75
2022/06/17 09:27:49;;;;;;;1.03;0.93;;;;;;;22.66;46.73;101661.78;5080403;28;20189;-75
2022/06/17 09:30:19;;;;;;;1.57;1.10;;;;;;;22.80;47.01;101657.44;5081980;28;20210;-75
2022/06/17 09:32:50;;;;;;;2.57;1.13;;;;;;;22.75;48.59;101655.06;5081092;28;20213;-75
2022/06/17 09:35:27;;;;;;;1.20;1.00;;;;;;;22.67;47.07;101660.84;5078016;28;20268;-75
2022/06/17 09:37:58;;;;;;;1.53;0.90;;;;;;;22.79;44.06;101666.34;5076816;28;20204;-75
2022/06/17 09:40:29;;;;;;;1.90;1.10;;;;;;;22.96;46.48;101666.16;5076096;28;20214;-75
2022/06/17 09:43:05;;;;;;;2.73;1.20;;;;;;;23.01;46.29;101671.22;5081326;28;20202;-74
2022/06/17 09:45:37;;;;;;;2.65;1.15;;;;;;;23.09;46.41;101660.97;5078760;28;20396;-75
2022/06/17 09:48:09;;;;;;;1.37;1.00;;;;;;;23.42;47.29;101654.47;5084933;28;20194;-75
2022/06/17 09:50:42;;;;;;;1.70;1.23;;;;;;;23.72;46.35;101648.09;5080460;28;20218;-75
2022/06/17 09:53:13;;;;;;;2.45;1.20;;;;;;;23.88;47.13;101637.31;5077343;28;20653;-75
2022/06/17 09:55:44;;;;;;;1.00;0.90;;;;;;;23.77;45.83;101653.97;5079993;28;20209;-75
2022/06/17 09:58:18;;;;;;;3.60;1.00;;;;;;;23.60;45.19;101652.41;5077819;28;20551;-75
2022/06/17 10:00:48;;;;;;;2.28;1.00;;;;;;;23.54;45.25;101653.66;5083042;28;20964;-74
2022/06/17 10:03:20;;;;;;;0.93;0.93;;;;;;;23.62;43.84;101647.84;5079560;28;20650;-74
2022/06/17 10:05:59;;;;;;;1.45;1.05;;;;;;;23.94;46.99;101644.88;5076254;28;20632;-75
2022/06/17 10:08:44;;;;;;;1.30;1.20;;;;;;;23.95;42.70;101652.78;5075500;28;20575;-75
2022/06/17 10:11:17;;;;;;;3.20;0.90;;;;;;;23.73;45.52;101641.84;5077603;28;20250;-74
2022/06/17 10:13:51;;;;;;;1.80;1.30;;;;;;;23.68;44.92;101635.97;5077005;28;20210;-75
2022/06/17 10:19:24;;;;;;;2.05;1.20;;;;;;;23.72;42.15;101629.47;5076208;28;20583;-75
2022/06/17 10:22:05;;;;;;;2.30;0.98;;;;;;;23.60;43.37;101623.13;5076541;28;20201;-75
2022/06/17 10:24:47;;;;;;;1.40;1.20;;;;;;;23.87;45.75;101611.63;5075375;28;20218;-75
2022/06/17 10:27:25;;;;;;;2.25;1.10;;;;;;;23.70;44.26;101612.75;5077152;28;20367;-75
2022/06/17 10:30:02;;;;;;;1.10;1.00;;;;;;;23.44;42.85;101621.47;5077319;28;20241;-74
2022/06/17 10:32:29;;;;;;;2.47;0.93;;;;;;;23.62;44.32;101623.88;5081099;28;20202;-75
2022/06/17 10:34:58;;;;;;;1.15;1.08;;;;;;;23.75;45.95;101615.97;5079176;28;20193;-74
2022/06/17 10:37:27;;;;;;;4.35;1.23;;;;;;;23.87;42.28;101617.84;5076396;28;20210;-74
2022/06/17 10:39:55;;;;;;;1.50;1.00;;;;;;;24.05;42.52;101612.25;5078016;28;20274;-74
2022/06/17 10:42:24;;;;;;;1.85;0.95;;;;;;;23.81;40.95;101610.25;5078617;28;20206;-75
2022/06/17 10:44:53;;;;;;;1.15;0.70;;;;;;;23.93;43.49;101611.25;5076432;28;20694;-75
2022/06/17 10:47:31;;;;;;;1.08;0.80;;;;;;;24.05;42.21;101607.75;5073577;28;20558;-75
2022/06/17 10:50:02;;;;;;;1.80;1.00;;;;;;;24.21;42.07;101610.22;5074435;28;20224;-74
2022/06/17 10:52:37;;;;;;;1.42;0.90;;;;;;;24.37;41.51;101610.03;5080538;28;20212;-74
2022/06/17 10:55:04;;;;;;;1.20;0.75;;;;;;;24.47;41.11;101602.25;5079076;28;20205;-74
2022/06/17 10:57:33;;;;;;;0.70;0.70;;;;;;;24.61;40.83;101607.50;5077551;28;20203;-75
2022/06/17 10:59:59;;;;;;;1.20;0.90;;;;;;;24.58;40.62;101604.19;5077606;28;20289;-74
2022/06/17 11:02:30;;;;;;;1.33;0.80;;;;;;;24.68;40.26;101607.94;5074515;28;20193;-74
2022/06/17 11:04:59;;;;;;;1.02;0.70;;;;;;;24.74;38.86;101604.81;5076243;28;20213;-75
2022/06/17 11:07:30;;;;;;;1.33;0.80;;;;;;;24.79;39.18;101600.00;5077530;28;20275;-75
2022/06/17 11:10:01;;;;;;;4.57;0.80;;;;;;;24.68;38.44;101600.78;5075245;28;20371;-74
2022/06/17 11:12:34;;;;;;;0.80;0.80;;;;;;;24.62;38.51;101595.88;5099457;28;20206;-74
2022/06/17 11:15:05;;;;;;;1.38;0.85;;;;;;;24.66;39.61;101585.84;5084401;28;20608;-75
2022/06/17 11:17:40;;;;;;;3.83;0.80;;;;;;;24.67;39.20;101582.22;5078689;28;20949;-75
2022/06/17 11:20:20;;;;;;;3.10;0.80;;;;;;;24.84;39.51;101584.53;5081910;28;20615;-75
2022/06/17 11:22:52;;;;;;;0.80;0.80;;;;;;;24.90;38.22;101577.91;5078294;28;20616;-74
2022/06/17 11:25:26;;;;;;;2.10;0.70;;;;;;;24.97;38.75;101584.50;5078351;28;20592;-74
2022/06/17 11:27:56;;;;;;;0.73;0.70;;;;;;;25.01;38.92;101577.13;5074199;28;20561;-74
2022/06/17 11:30:27;;;;;;;1.92;0.70;;;;;;;25.04;38.48;101575.09;5080144;28;20225;-74
2022/06/17 11:32:55;;;;;;;1.38;0.75;;;;;;;25.04;37.86;101558.25;5082123;28;20198;-75
2022/06/17 11:35:28;;;;;;;0.80;0.80;;;;;;;25.14;38.45;101561.94;5080555;28;20202;-75
2022/06/17 11:37:55;;;;;;;4.00;0.90;;;;;;;25.20;38.00;101566.81;5080722;28;20247;-74
2022/06/17 11:40:25;;;;;;;1.02;0.70;;;;;;;25.14;37.93;101569.97;5082459;28;20229;-74
2022/06/17 11:42:54;;;;;;;2.95;0.90;;;;;;;25.23;38.70;101558.59;5084333;28;20297;-74
2022/06/17 11:45:24;;;;;;;1.58;0.90;;;;;;;25.30;38.20;101556.38;5077998;28;20229;-75
2022/06/17 11:47:55;;;;;;;0.95;0.63;;;;;;;25.45;37.85;101557.91;5079261;28;20198;-74
2022/06/17 11:50:25;;;;;;;0.65;0.60;;;;;;;25.45;37.20;101552.56;5075921;28;20699;-75
2022/06/17 11:53:01;;;;;;;2.33;0.60;;;;;;;25.59;36.56;101553.34;5080206;28;20665;-74
2022/06/17 11:55:31;;;;;;;0.80;0.73;;;;;;;25.62;36.95;101550.44;5083675;28;20670;-75